createdAt,value
2022-08-22T00:00:28.014Z,101267.03
2022-08-22T00:02:57.677Z,101262.06
2022-08-22T00:03:39.983Z,101257.78
2022-08-22T00:07:00.443Z,101259.38
2022-08-22T00:09:57.471Z,101259.38
2022-08-22T00:12:53.045Z,101264.56
2022-08-22T00:15:52.645Z,101264.91
2022-08-22T00:19:03.237Z,101260.03
2022-08-22T00:22:09.837Z,101260.41
2022-08-22T00:25:08.466Z,101265.63
2022-08-22T00:28:25.161Z,101270.03
2022-08-22T00:31:31.958Z,101276.03
2022-08-22T00:34:34.439Z,101278.41
2022-08-22T00:37:46.109Z,101276.34
2022-08-22T00:41:05.201Z,101280.78
2022-08-22T00:44:10.812Z,101283.59
2022-08-22T00:47:06.886Z,101270.31
2022-08-22T00:50:30.547Z,101281.13
2022-08-22T00:53:39.207Z,101279.91
2022-08-22T00:56:26.263Z,101280.69
2022-08-22T00:59:23.241Z,101277.44
2022-08-22T01:02:32.624Z,101286.22
2022-08-22T01:05:25.687Z,101288.19
2022-08-22T01:08:31.317Z,101284.59
2022-08-22T01:11:27.654Z,101280.97
2022-08-22T01:14:34.775Z,101278.94
2022-08-22T01:17:45.374Z,101285.72
2022-08-22T01:21:09.978Z,101286.94
2022-08-22T01:24:24.700Z,101280.88
2022-08-22T01:27:32.057Z,101277.25
2022-08-22T01:30:42.258Z,101290.06
2022-08-22T01:34:06.444Z,101290.81
2022-08-22T01:37:43.742Z,101292.88
2022-08-22T01:40:53.437Z,101284.78
2022-08-22T01:43:59.299Z,101290.81
2022-08-22T01:47:10.531Z,101286.78
2022-08-22T01:50:19.022Z,101285.91
2022-08-22T01:53:19.701Z,101282.66
2022-08-22T01:56:12.949Z,101294.63
2022-08-22T01:59:11.232Z,101287.34
2022-08-22T02:02:10.375Z,101292.59
2022-08-22T02:05:06.818Z,101286.22
2022-08-22T02:08:21.022Z,101284.22
2022-08-22T02:11:31.534Z,101284.25
2022-08-22T02:14:43.198Z,101280.59
2022-08-22T02:17:36.163Z,101287.31
2022-08-22T02:20:34.407Z,101283.28
2022-08-22T02:23:48.802Z,101284.81
2022-08-22T02:26:50.783Z,101289.63
2022-08-22T02:29:48.808Z,101289.19
2022-08-22T02:33:07.382Z,101287.56
2022-08-22T02:36:19.550Z,101283.47
2022-08-22T02:39:35.438Z,101282.31
2022-08-22T02:42:38.160Z,101280.69
2022-08-22T02:45:40.889Z,101285.88
2022-08-22T02:48:50.714Z,101272.56
2022-08-22T02:51:53.087Z,101270.22
2022-08-22T02:54:52.355Z,101271.06
2022-08-22T02:57:47.203Z,101267.41
2022-08-22T03:00:46.112Z,101266.50
2022-08-22T03:03:40.216Z,101263.66
2022-08-22T03:06:43.987Z,101257.19
2022-08-22T03:09:37.028Z,101267.50
2022-08-22T03:12:38.920Z,101264.56
2022-08-22T03:15:52.537Z,101270.97
2022-08-22T03:19:03.852Z,101276.97
2022-08-22T03:22:05.681Z,101291.38
2022-08-22T03:25:07.749Z,101284.94
2022-08-22T03:28:10.367Z,101282.44
2022-08-22T03:30:59.501Z,101290.47
2022-08-22T03:34:15.443Z,101300.03
2022-08-22T03:37:20.684Z,101297.13
2022-08-22T03:40:20.170Z,101294.66
2022-08-22T03:43:10.670Z,101294.22
2022-08-22T03:45:57.872Z,101305.44
2022-08-22T03:49:06.714Z,101302.97
2022-08-22T03:52:31.092Z,101290.13
2022-08-22T03:55:35.288Z,101289.28
2022-08-22T03:58:34.750Z,101287.66
2022-08-22T04:01:40.613Z,101289.28
2022-08-22T04:05:04.347Z,101296.41
2022-08-22T04:08:12.984Z,101288.38
2022-08-22T04:11:07.982Z,101288.84
2022-08-22T04:14:29.133Z,101294.03
2022-08-22T04:17:52.184Z,101287.53
2022-08-22T04:21:06.994Z,101287.53
2022-08-22T04:23:54.053Z,101285.50
2022-08-22T04:26:50.059Z,101295.09
2022-08-22T04:29:52.657Z,101293.03
2022-08-22T04:33:05.401Z,101294.22
2022-08-22T04:36:20.296Z,101295.00
2022-08-22T04:39:14.940Z,101301.84
2022-08-22T04:42:32.605Z,101300.28
2022-08-22T04:45:29.859Z,101310.31
2022-08-22T04:48:22.487Z,101301.03
2022-08-22T04:51:13.418Z,101306.75
2022-08-22T04:54:39.762Z,101310.06
2022-08-22T04:58:01.396Z,101316.47
2022-08-22T05:01:15.072Z,101306.13
2022-08-22T05:04:08.624Z,101315.06
2022-08-22T05:07:18.514Z,101315.91
2022-08-22T05:13:34.630Z,101318.88
2022-08-22T05:16:25.795Z,101315.34
2022-08-22T05:23:02.009Z,101317.16
2022-08-22T05:26:04.232Z,101318.88
2022-08-22T05:29:03.136Z,101323.72
2022-08-22T05:32:09.880Z,101319.78
2022-08-22T05:35:02.035Z,101325.47
2022-08-22T05:37:55.502Z,101321.63
2022-08-22T05:40:44.986Z,101324.59
2022-08-22T05:43:38.963Z,101326.94
2022-08-22T05:46:50.137Z,101333.03
2022-08-22T05:49:45.229Z,101329.97
2022-08-22T05:52:40.452Z,101332.44
2022-08-22T05:55:42.917Z,101340.78
2022-08-22T05:58:45.585Z,101340.53
2022-08-22T06:01:59.061Z,101336.56
2022-08-22T06:04:55.056Z,101339.00
2022-08-22T06:07:48.456Z,101347.16
2022-08-22T06:11:04.029Z,101346.06
2022-08-22T06:14:08.212Z,101347.75
2022-08-22T06:17:07.503Z,101355.25
2022-08-22T06:19:55.367Z,101355.84
2022-08-22T06:22:57.817Z,101358.34
2022-08-22T06:25:48.725Z,101354.31
2022-08-22T06:28:54.721Z,101352.88
2022-08-22T06:31:46.974Z,101355.31
2022-08-22T06:34:37.882Z,101370.41
2022-08-22T06:37:34.532Z,101367.69
2022-08-22T06:40:22.790Z,101358.03
2022-08-22T06:43:21.548Z,101360.88
2022-08-22T06:46:11.495Z,101356.06
2022-08-22T06:49:02.120Z,101362.13
2022-08-22T06:52:03.661Z,101359.66
2022-08-22T06:55:03.540Z,101359.28
2022-08-22T07:02:24.248Z,101353.63
2022-08-22T07:08:26.388Z,101361.66
2022-08-22T07:11:30.621Z,101359.59
2022-08-22T07:14:26.524Z,101367.63
2022-08-22T07:18:00.598Z,101361.84
2022-08-22T07:32:28.627Z,101373.94
2022-08-22T07:38:44.079Z,101386.97
2022-08-22T07:42:02.839Z,101382.94
2022-08-22T07:45:06.266Z,101393.88
2022-08-22T07:48:25.114Z,101388.50
2022-08-22T07:51:20.450Z,101381.06
2022-08-22T07:58:18.036Z,101393.38
2022-08-22T08:05:47.442Z,101406.75
2022-08-22T08:08:49.147Z,101405.03
2022-08-22T08:11:42.350Z,101403.56
2022-08-22T08:17:44.507Z,101396.91
2022-08-22T08:20:38.340Z,101417.34
2022-08-22T08:23:30.530Z,101436.56
2022-08-22T08:26:31.297Z,101419.72
2022-08-22T08:29:19.310Z,101407.78
2022-08-22T08:32:13.929Z,101424.53
2022-08-22T08:38:58.158Z,101418.75
2022-08-22T08:41:51.828Z,101400.81
2022-08-22T08:44:49.615Z,101396.91
2022-08-22T08:48:03.259Z,101401.34
2022-08-22T08:51:16.980Z,101418.66
2022-08-22T08:54:43.588Z,101413.91
2022-08-22T08:57:42.576Z,101409.09
2022-08-22T09:00:51.234Z,101398.75
2022-08-22T09:04:15.663Z,101403.69
2022-08-22T09:07:16.652Z,101414.72
2022-08-22T09:10:11.813Z,101397.38
2022-08-22T09:13:16.335Z,101391.78
2022-08-22T09:16:36.687Z,101372.88
2022-08-22T09:19:29.837Z,101373.41
2022-08-22T09:22:33.526Z,101378.59
2022-08-22T09:26:01.141Z,101380.88
2022-08-22T09:29:02.142Z,101349.03
2022-08-22T09:32:13.193Z,101365.84
2022-08-22T09:35:16.998Z,101360.47
2022-08-22T09:38:48.306Z,101361.06
2022-08-22T09:41:44.631Z,101335.47
2022-08-22T09:44:59.421Z,101343.19
2022-08-22T09:48:07.600Z,101331.06
2022-08-22T09:51:28.596Z,101338.94
2022-08-22T09:54:33.068Z,101355.22
2022-08-22T09:57:32.696Z,101329.13
2022-08-22T10:00:40.664Z,101338.69
2022-08-22T10:03:52.080Z,101312.22
2022-08-22T10:06:41.568Z,101304.88
2022-08-22T10:09:39.934Z,101314.00
2022-08-22T10:12:36.159Z,101317.78
2022-08-22T10:15:37.997Z,101281.78
2022-08-22T10:18:37.345Z,101267.06
2022-08-22T10:22:03.744Z,101296.97
2022-08-22T10:25:07.640Z,101285.31
2022-08-22T10:28:14.299Z,101270.84
2022-08-22T10:31:08.399Z,101268.34
2022-08-22T10:34:09.267Z,101249.78
2022-08-22T10:36:56.274Z,101277.56
2022-08-22T10:39:52.560Z,101264.25
2022-08-22T10:42:51.646Z,101264.97
2022-08-22T10:45:45.427Z,101259.34
2022-08-22T10:48:35.219Z,101272.28
2022-08-22T10:51:33.414Z,101234.50
2022-08-22T10:54:35.157Z,101258.97
2022-08-22T10:57:36.437Z,101239.78
2022-08-22T11:00:58.517Z,101254.28
2022-08-22T11:03:55.617Z,101217.75
2022-08-22T11:06:54.763Z,101223.47
2022-08-22T11:09:43.708Z,101228.06
2022-08-22T11:13:18.646Z,101212.16
2022-08-22T11:16:05.551Z,101195.06
2022-08-22T11:19:31.205Z,101222.13
2022-08-22T11:22:34.179Z,101225.34
2022-08-22T11:25:36.197Z,101232.75
2022-08-22T11:29:13.475Z,101209.78
2022-08-22T11:32:32.097Z,101192.81
2022-08-22T11:35:24.310Z,101192.16
2022-08-22T11:38:32.074Z,101176.28
2022-08-22T11:41:45.101Z,101173.47
2022-08-22T11:44:50.300Z,101170.91
2022-08-22T11:47:47.806Z,101166.94
2022-08-22T11:50:42.557Z,101169.53
2022-08-22T11:53:39.026Z,101160.69
2022-08-22T11:56:26.230Z,101166.44
2022-08-22T11:59:43.120Z,101167.84
2022-08-22T12:02:48.989Z,101147.00
2022-08-22T12:05:59.742Z,101128.41
2022-08-22T12:08:50.994Z,101131.16
2022-08-22T12:12:02.317Z,101114.75
2022-08-22T12:15:08.891Z,101144.44
2022-08-22T12:18:08.089Z,101135.56
2022-08-22T12:21:16.176Z,101144.50
2022-08-22T12:24:06.031Z,101162.63
2022-08-22T12:27:28.699Z,101149.06
2022-08-22T12:30:31.929Z,101166.63
2022-08-22T12:33:28.081Z,101114.41
2022-08-22T12:36:40.641Z,101123.13
2022-08-22T12:39:40.344Z,101137.00
2022-08-22T12:43:10.632Z,101100.91
2022-08-22T12:46:16.158Z,101100.69
2022-08-22T12:49:25.599Z,101086.50
2022-08-22T12:52:50.758Z,101096.88
2022-08-22T12:56:16.135Z,101080.84
2022-08-22T12:59:20.041Z,101077.16
2022-08-22T13:02:23.979Z,101074.63
2022-08-22T13:05:26.212Z,101076.13
2022-08-22T13:08:20.885Z,101099.09
2022-08-22T13:11:22.687Z,101059.53
2022-08-22T13:14:18.513Z,101063.78
2022-08-22T13:17:24.450Z,101056.94
2022-08-22T13:20:26.759Z,101067.19
2022-08-22T13:23:26.402Z,101072.94
2022-08-22T13:26:34.407Z,101065.53
2022-08-22T13:29:39.167Z,101058.06
2022-08-22T13:32:38.359Z,101051.81
2022-08-22T13:35:44.636Z,101062.16
2022-08-22T13:38:48.274Z,101044.00
2022-08-22T13:41:44.983Z,101049.53
2022-08-22T13:44:45.902Z,101040.31
2022-08-22T13:47:39.445Z,101046.44
2022-08-22T13:50:53.570Z,101045.38
2022-08-22T13:53:50.026Z,101006.91
2022-08-22T13:57:15.410Z,101009.97
2022-08-22T14:00:07.434Z,101027.41
2022-08-22T14:03:00.674Z,101013.25
2022-08-22T14:06:06.283Z,101018.06
2022-08-22T14:09:17.305Z,101042.22
2022-08-22T14:12:23.034Z,100993.03
2022-08-22T14:15:11.626Z,101008.38
2022-08-22T14:18:12.657Z,100993.06
2022-08-22T14:21:40.267Z,100999.53
2022-08-22T14:24:55.720Z,101039.22
2022-08-22T14:28:06.231Z,100986.94
2022-08-22T14:31:00.686Z,101010.84
2022-08-22T14:34:07.654Z,101017.69
2022-08-22T14:37:08.618Z,101061.59
2022-08-22T14:40:04.460Z,101034.44
2022-08-22T14:42:59.258Z,101025.78
2022-08-22T14:45:56.170Z,101013.81
2022-08-22T14:49:11.250Z,101001.69
2022-08-22T14:52:19.959Z,100986.81
2022-08-22T14:55:13.765Z,100985.56
2022-08-22T14:58:05.978Z,100985.25
2022-08-22T15:00:56.061Z,100972.47
2022-08-22T15:03:51.303Z,100996.44
2022-08-22T15:06:50.970Z,100996.78
2022-08-22T15:09:40.574Z,101004.19
2022-08-22T15:12:33.304Z,101008.00
2022-08-22T15:15:28.652Z,100987.19
2022-08-22T15:21:33.027Z,101000.25
2022-08-22T15:24:24.039Z,100999.88
2022-08-22T15:27:12.031Z,101001.59
2022-08-22T15:30:05.088Z,100997.50
2022-08-22T15:32:53.053Z,100980.72
2022-08-22T15:35:42.273Z,100965.59
2022-08-22T15:38:38.967Z,100980.28
2022-08-22T15:41:40.933Z,100999.56
2022-08-22T15:44:33.513Z,100967.47
2022-08-22T15:47:34.924Z,100950.44
2022-08-22T15:50:39.134Z,100939.25
2022-08-22T15:53:50.355Z,100961.69
2022-08-22T15:57:12.711Z,100951.59
2022-08-22T16:00:12.254Z,100948.59
2022-08-22T16:03:24.129Z,100962.22
2022-08-22T16:06:16.295Z,100936.13
2022-08-22T16:09:05.703Z,100950.00
2022-08-22T16:11:55.710Z,100976.81
2022-08-22T16:14:42.803Z,100961.25
2022-08-22T16:17:29.878Z,100999.69
2022-08-22T16:20:20.171Z,101000.44
2022-08-22T16:23:08.961Z,100988.13
2022-08-22T16:25:59.123Z,100961.69
2022-08-22T16:28:59.992Z,100957.56
2022-08-22T16:31:46.979Z,100956.66
2022-08-22T16:34:37.063Z,100953.78
2022-08-22T16:37:46.140Z,100951.63
2022-08-22T16:40:47.299Z,100948.16
2022-08-22T16:43:34.585Z,100929.09
2022-08-22T16:46:37.523Z,100920.16
2022-08-22T16:49:29.861Z,100921.97
2022-08-22T16:52:26.048Z,100921.50
2022-08-22T16:55:31.304Z,100920.00
2022-08-22T16:58:56.543Z,100921.25
2022-08-22T17:01:45.885Z,100911.84
2022-08-22T17:04:41.879Z,100921.66
2022-08-22T17:07:59.646Z,100909.72
2022-08-22T17:11:03.211Z,100923.28
2022-08-22T17:13:57.613Z,100917.66
2022-08-22T17:16:56.649Z,100934.34
2022-08-22T17:20:05.709Z,100947.13
2022-08-22T17:23:00.780Z,100948.28
2022-08-22T17:25:54.790Z,100923.25
2022-08-22T17:29:10.391Z,100922.16
2022-08-22T17:32:10.603Z,100922.47
2022-08-22T17:35:09.824Z,100921.19
2022-08-22T17:38:00.249Z,100956.91
2022-08-22T17:41:06.117Z,100960.72
2022-08-22T17:44:35.247Z,100952.13
2022-08-22T17:47:30.621Z,100940.31
2022-08-22T17:50:44.733Z,100978.16
2022-08-22T17:53:53.524Z,100973.34
2022-08-22T17:57:00.373Z,100966.44
2022-08-22T18:00:12.315Z,100965.97
2022-08-22T18:03:11.567Z,100985.16
2022-08-22T18:06:10.955Z,100995.69
2022-08-22T18:09:20.158Z,100978.53
2022-08-22T18:12:34.045Z,101000.13
2022-08-22T18:15:55.208Z,101007.31
2022-08-22T18:18:52.915Z,100996.78
2022-08-22T18:21:51.434Z,101001.50
2022-08-22T18:25:12.543Z,101030.06
2022-08-22T18:29:06.514Z,101026.09
2022-08-22T18:32:19.697Z,101067.16
2022-08-22T18:35:09.608Z,101086.59
2022-08-22T18:38:19.929Z,101080.16
2022-08-22T18:41:26.680Z,101089.53
2022-08-22T18:44:26.283Z,101091.13
2022-08-22T18:47:24.734Z,101094.09
2022-08-22T18:50:32.521Z,101098.88
2022-08-22T18:54:18.695Z,101102.09
2022-08-22T18:57:30.975Z,101105.50
2022-08-22T19:00:51.141Z,101100.50
2022-08-22T19:03:40.950Z,101101.16
2022-08-22T19:06:41.301Z,101098.97
2022-08-22T19:09:45.189Z,101118.03
2022-08-22T19:13:04.126Z,101109.72
2022-08-22T19:16:01.116Z,101106.66
2022-08-22T19:19:02.987Z,101082.91
2022-08-22T19:22:20.838Z,101081.09
2022-08-22T19:25:26.329Z,101109.19
2022-08-22T19:28:13.310Z,101106.41
2022-08-22T19:31:41.982Z,101105.72
2022-08-22T19:34:28.930Z,101110.88
2022-08-22T19:37:30.665Z,101110.91
2022-08-22T19:40:45.163Z,101107.41
2022-08-22T19:43:37.352Z,101101.69
2022-08-22T19:46:40.243Z,101106.06
2022-08-22T19:49:30.693Z,101107.25
2022-08-22T19:52:51.494Z,101100.63
2022-08-22T19:55:38.562Z,101107.03
2022-08-22T19:58:40.707Z,101091.91
2022-08-22T20:01:44.167Z,101087.13
2022-08-22T20:04:40.269Z,101086.44
2022-08-22T20:07:53.390Z,101089.13
2022-08-22T20:11:09.538Z,101082.72
2022-08-22T20:14:32.689Z,101096.25
2022-08-22T20:17:26.827Z,101100.34
2022-08-22T20:20:27.993Z,101104.94
2022-08-22T20:23:28.467Z,101119.81
2022-08-22T20:26:16.049Z,101119.94
2022-08-22T20:29:08.120Z,101109.69
2022-08-22T20:31:58.651Z,101103.94
2022-08-22T20:34:51.223Z,101101.69
2022-08-22T20:38:05.803Z,101093.88
2022-08-22T20:41:03.168Z,101083.66
2022-08-22T20:44:19.127Z,101085.78
2022-08-22T20:47:14.096Z,101106.06
2022-08-22T20:50:12.458Z,101098.78
2022-08-22T20:53:15.609Z,101109.78
2022-08-22T20:56:05.728Z,101104.00
2022-08-22T20:58:53.358Z,101099.91
2022-08-22T21:01:41.313Z,101096.47
2022-08-22T21:04:42.515Z,101107.28
2022-08-22T21:07:37.168Z,101094.31
2022-08-22T21:10:46.727Z,101079.16
2022-08-22T21:13:38.189Z,101082.94
2022-08-22T21:16:33.515Z,101082.47
2022-08-22T21:19:26.362Z,101088.94
2022-08-22T21:22:25.720Z,101091.78
2022-08-22T21:25:14.086Z,101103.50
2022-08-22T21:28:01.330Z,101090.84
2022-08-22T21:30:48.469Z,101076.66
2022-08-22T21:33:38.887Z,101077.44
2022-08-22T21:36:30.291Z,101079.66
2022-08-22T21:39:21.721Z,101087.13
2022-08-22T21:42:24.003Z,101073.47
2022-08-22T21:45:31.869Z,101086.25
2022-08-22T21:48:43.785Z,101079.31
2022-08-22T21:51:43.088Z,101065.72
2022-08-22T21:54:40.229Z,101077.44
2022-08-22T21:57:35.618Z,101081.47
2022-08-22T22:01:00.422Z,101089.66
2022-08-22T22:03:47.524Z,101100.97
2022-08-22T22:06:34.696Z,101089.69
2022-08-22T22:09:21.866Z,101096.28
2022-08-22T22:12:11.335Z,101090.75
2022-08-22T22:14:58.490Z,101090.53
2022-08-22T22:17:45.999Z,101086.88
2022-08-22T22:20:33.358Z,101079.97
2022-08-22T22:23:22.194Z,101080.09
2022-08-22T22:26:09.405Z,101084.75
2022-08-22T22:28:58.719Z,101088.22
2022-08-22T22:31:45.934Z,101085.09
2022-08-22T22:34:33.074Z,101089.34
2022-08-22T22:37:20.364Z,101092.53
2022-08-22T22:40:08.758Z,101085.75
2022-08-22T22:42:55.816Z,101091.28
2022-08-22T22:45:42.868Z,101090.53
2022-08-22T22:48:29.950Z,101107.50
2022-08-22T22:51:16.970Z,101111.41
2022-08-22T22:54:04.028Z,101117.34
2022-08-22T22:56:51.636Z,101108.16
2022-08-22T22:59:38.981Z,101109.47
2022-08-22T23:02:27.125Z,101107.97
2022-08-22T23:05:14.201Z,101110.19
2022-08-22T23:08:02.475Z,101114.00
2022-08-22T23:10:49.549Z,101109.28
2022-08-22T23:13:39.557Z,101110.88
2022-08-22T23:16:28.896Z,101119.06
2022-08-22T23:19:17.319Z,101126.41
2022-08-22T23:22:05.373Z,101120.69
2022-08-22T23:24:52.508Z,101123.00
2022-08-22T23:27:39.840Z,101127.69
2022-08-22T23:30:26.889Z,101117.84
2022-08-22T23:33:14.360Z,101140.41
2022-08-22T23:36:01.380Z,101139.59
2022-08-22T23:38:49.950Z,101138.00
2022-08-22T23:41:37.780Z,101140.38
2022-08-22T23:44:29.646Z,101132.75
2022-08-22T23:47:16.661Z,101140.41
2022-08-22T23:50:05.884Z,101142.88
2022-08-22T23:52:53.444Z,101149.19
2022-08-22T23:55:40.783Z,101149.19
2022-08-22T23:58:27.878Z,101153.63
